sensor_id;sensor_type;location;lat;lon;timestamp;P1;durP1;ratioP1;P2;durP2;ratioP2
51216;SDS011;37283;49.760;8.648;2023-04-24T00:23:44;3.10;;;1.20;;
51216;SDS011;37283;49.760;8.648;2023-04-24T00:26:11;3.97;;;1.10;;
51216;SDS011;37283;49.760;8.648;2023-04-24T01:02:39;1.77;;;0.93;;
51216;SDS011;37283;49.760;8.648;2023-04-24T01:05:13;3.08;;;1.33;;
51216;SDS011;37283;49.760;8.648;2023-04-24T01:07:43;2.90;;;1.05;;
51216;SDS011;37283;49.760;8.648;2023-04-24T01:10:13;2.50;;;1.00;;
51216;SDS011;37283;49.760;8.648;2023-04-24T01:12:43;4.70;;;1.00;;
51216;SDS011;37283;49.760;8.648;2023-04-24T01:15:23;2.47;;;0.85;;
51216;SDS011;37283;49.760;8.648;2023-04-24T01:17:50;3.25;;;0.95;;
51216;SDS011;37283;49.760;8.648;2023-04-24T01:20:17;1.92;;;0.90;;
51216;SDS011;37283;49.760;8.648;2023-04-24T01:22:45;4.75;;;1.20;;
51216;SDS011;37283;49.760;8.648;2023-04-24T01:25:11;1.20;;;0.85;;
51216;SDS011;37283;49.760;8.648;2023-04-24T01:27:38;1.88;;;0.90;;
51216;SDS011;37283;49.760;8.648;2023-04-24T01:30:05;2.92;;;1.00;;
51216;SDS011;37283;49.760;8.648;2023-04-24T01:32:39;3.95;;;1.15;;
51216;SDS011;37283;49.760;8.648;2023-04-24T01:35:06;5.13;;;1.20;;
51216;SDS011;37283;49.760;8.648;2023-04-24T01:37:34;4.20;;;1.00;;
51216;SDS011;37283;49.760;8.648;2023-04-24T01:40:00;6.18;;;1.85;;
51216;SDS011;37283;49.760;8.648;2023-04-24T01:42:27;3.55;;;1.00;;
51216;SDS011;37283;49.760;8.648;2023-04-24T01:44:53;2.72;;;1.00;;
51216;SDS011;37283;49.760;8.648;2023-04-24T01:47:21;1.75;;;0.70;;
51216;SDS011;37283;49.760;8.648;2023-04-24T01:49:49;3.33;;;1.10;;
51216;SDS011;37283;49.760;8.648;2023-04-24T02:04:36;3.47;;;1.10;;
51216;SDS011;37283;49.760;8.648;2023-04-24T02:07:15;5.75;;;1.02;;
51216;SDS011;37283;49.760;8.648;2023-04-24T02:36:13;4.70;;;1.25;;
51216;SDS011;37283;49.760;8.648;2023-04-24T02:38:43;2.97;;;1.20;;
51216;SDS011;37283;49.760;8.648;2023-04-24T02:42:58;3.58;;;1.13;;
51216;SDS011;37283;49.760;8.648;2023-04-24T02:45:30;4.28;;;1.20;;
51216;SDS011;37283;49.760;8.648;2023-04-24T02:47:57;2.10;;;1.27;;
51216;SDS011;37283;49.760;8.648;2023-04-24T02:59:28;3.75;;;1.52;;
51216;SDS011;37283;49.760;8.648;2023-04-24T03:07:58;2.50;;;0.90;;
51216;SDS011;37283;49.760;8.648;2023-04-24T03:10:25;2.35;;;1.10;;
51216;SDS011;37283;49.760;8.648;2023-04-24T03:12:52;5.47;;;1.15;;
51216;SDS011;37283;49.760;8.648;2023-04-24T03:15:18;2.28;;;0.93;;
51216;SDS011;37283;49.760;8.648;2023-04-24T03:17:45;2.17;;;1.02;;
51216;SDS011;37283;49.760;8.648;2023-04-24T03:23:08;1.73;;;1.05;;
51216;SDS011;37283;49.760;8.648;2023-04-24T03:25:36;2.28;;;1.08;;
51216;SDS011;37283;49.760;8.648;2023-04-24T03:28:03;2.22;;;1.10;;
51216;SDS011;37283;49.760;8.648;2023-04-24T03:30:38;4.95;;;1.27;;
51216;SDS011;37283;49.760;8.648;2023-04-24T03:39:05;1.85;;;1.05;;
51216;SDS011;37283;49.760;8.648;2023-04-24T03:58:11;3.58;;;1.20;;
51216;SDS011;37283;49.760;8.648;2023-04-24T04:04:51;2.63;;;1.50;;
51216;SDS011;37283;49.760;8.648;2023-04-24T04:07:21;1.58;;;1.38;;
51216;SDS011;37283;49.760;8.648;2023-04-24T04:12:37;6.33;;;1.70;;
51216;SDS011;37283;49.760;8.648;2023-04-24T04:15:18;3.72;;;1.60;;
51216;SDS011;37283;49.760;8.648;2023-04-24T04:20:30;2.30;;;1.85;;
51216;SDS011;37283;49.760;8.648;2023-04-24T04:22:58;3.63;;;2.03;;
51216;SDS011;37283;49.760;8.648;2023-04-24T04:25:39;2.80;;;2.00;;
51216;SDS011;37283;49.760;8.648;2023-04-24T04:30:33;2.53;;;1.80;;
51216;SDS011;37283;49.760;8.648;2023-04-24T04:33:09;2.22;;;1.80;;
51216;SDS011;37283;49.760;8.648;2023-04-24T04:35:37;2.47;;;2.10;;
51216;SDS011;37283;49.760;8.648;2023-04-24T04:41:07;3.00;;;2.00;;
51216;SDS011;37283;49.760;8.648;2023-04-24T04:49:39;2.30;;;2.00;;
51216;SDS011;37283;49.760;8.648;2023-04-24T04:59:51;3.67;;;2.33;;
51216;SDS011;37283;49.760;8.648;2023-04-24T05:02:36;2.75;;;2.05;;
51216;SDS011;37283;49.760;8.648;2023-04-24T05:05:02;3.22;;;2.33;;
51216;SDS011;37283;49.760;8.648;2023-04-24T05:07:29;3.20;;;2.38;;
51216;SDS011;37283;49.760;8.648;2023-04-24T05:09:56;3.58;;;2.15;;
51216;SDS011;37283;49.760;8.648;2023-04-24T05:12:22;2.88;;;2.00;;
51216;SDS011;37283;49.760;8.648;2023-04-24T05:14:51;2.78;;;2.00;;
51216;SDS011;37283;49.760;8.648;2023-04-24T05:17:18;3.05;;;2.30;;
51216;SDS011;37283;49.760;8.648;2023-04-24T05:19:44;4.45;;;2.17;;
51216;SDS011;37283;49.760;8.648;2023-04-24T05:22:13;3.50;;;2.50;;
51216;SDS011;37283;49.760;8.648;2023-04-24T05:24:47;4.78;;;2.40;;
51216;SDS011;37283;49.760;8.648;2023-04-24T05:27:49;4.82;;;2.30;;
51216;SDS011;37283;49.760;8.648;2023-04-24T05:30:17;3.17;;;1.90;;
51216;SDS011;37283;49.760;8.648;2023-04-24T05:32:43;3.17;;;2.30;;
51216;SDS011;37283;49.760;8.648;2023-04-24T05:35:11;2.80;;;2.50;;
51216;SDS011;37283;49.760;8.648;2023-04-24T05:37:37;4.13;;;2.40;;
51216;SDS011;37283;49.760;8.648;2023-04-24T05:40:04;4.63;;;2.53;;
51216;SDS011;37283;49.760;8.648;2023-04-24T05:42:31;7.57;;;3.17;;
51216;SDS011;37283;49.760;8.648;2023-04-24T05:44:58;3.70;;;2.47;;
51216;SDS011;37283;49.760;8.648;2023-04-24T05:47:25;3.70;;;2.72;;
51216;SDS011;37283;49.760;8.648;2023-04-24T05:49:53;4.80;;;2.83;;
51216;SDS011;37283;49.760;8.648;2023-04-24T05:52:19;3.28;;;2.80;;
51216;SDS011;37283;49.760;8.648;2023-04-24T05:54:47;2.85;;;2.42;;
51216;SDS011;37283;49.760;8.648;2023-04-24T05:57:19;4.55;;;3.25;;
51216;SDS011;37283;49.760;8.648;2023-04-24T05:59:56;3.63;;;2.95;;
51216;SDS011;37283;49.760;8.648;2023-04-24T06:02:24;4.32;;;3.10;;
51216;SDS011;37283;49.760;8.648;2023-04-24T06:04:51;3.92;;;3.03;;
51216;SDS011;37283;49.760;8.648;2023-04-24T06:07:18;4.22;;;3.25;;
51216;SDS011;37283;49.760;8.648;2023-04-24T06:09:45;4.93;;;3.00;;
51216;SDS011;37283;49.760;8.648;2023-04-24T06:12:12;3.85;;;2.92;;
51216;SDS011;37283;49.760;8.648;2023-04-24T06:14:54;4.80;;;2.97;;
51216;SDS011;37283;49.760;8.648;2023-04-24T06:17:28;5.22;;;3.13;;
51216;SDS011;37283;49.760;8.648;2023-04-24T06:19:54;5.15;;;3.53;;
51216;SDS011;37283;49.760;8.648;2023-04-24T06:22:23;4.30;;;3.33;;
51216;SDS011;37283;49.760;8.648;2023-04-24T06:24:50;4.93;;;3.60;;
51216;SDS011;37283;49.760;8.648;2023-04-24T06:27:16;4.53;;;3.78;;
51216;SDS011;37283;49.760;8.648;2023-04-24T06:29:43;6.43;;;3.70;;
51216;SDS011;37283;49.760;8.648;2023-04-24T06:32:10;4.72;;;4.07;;
51216;SDS011;37283;49.760;8.648;2023-04-24T06:34:36;6.45;;;4.22;;
51216;SDS011;37283;49.760;8.648;2023-04-24T06:37:03;5.65;;;4.38;;
51216;SDS011;37283;49.760;8.648;2023-04-24T06:39:29;4.90;;;4.03;;
51216;SDS011;37283;49.760;8.648;2023-04-24T06:41:56;7.15;;;4.93;;
51216;SDS011;37283;49.760;8.648;2023-04-24T06:44:22;5.68;;;4.45;;
51216;SDS011;37283;49.760;8.648;2023-04-24T06:46:49;4.75;;;4.22;;
51216;SDS011;37283;49.760;8.648;2023-04-24T06:49:15;7.68;;;4.25;;
51216;SDS011;37283;49.760;8.648;2023-04-24T06:51:42;4.35;;;3.95;;
51216;SDS011;37283;49.760;8.648;2023-04-24T06:54:08;5.80;;;4.65;;
51216;SDS011;37283;49.760;8.648;2023-04-24T06:56:35;7.30;;;5.00;;
51216;SDS011;37283;49.760;8.648;2023-04-24T06:59:01;5.70;;;5.10;;
51216;SDS011;37283;49.760;8.648;2023-04-24T07:01:28;7.22;;;5.13;;
51216;SDS011;37283;49.760;8.648;2023-04-24T07:03:54;7.60;;;5.13;;
51216;SDS011;37283;49.760;8.648;2023-04-24T07:06:21;7.10;;;4.65;;
51216;SDS011;37283;49.760;8.648;2023-04-24T07:08:49;6.20;;;5.00;;
51216;SDS011;37283;49.760;8.648;2023-04-24T07:11:16;9.43;;;4.93;;
51216;SDS011;37283;49.760;8.648;2023-04-24T07:13:42;5.65;;;4.13;;
51216;SDS011;37283;49.760;8.648;2023-04-24T07:16:09;5.68;;;3.67;;
51216;SDS011;37283;49.760;8.648;2023-04-24T07:18:37;8.40;;;4.53;;
51216;SDS011;37283;49.760;8.648;2023-04-24T07:21:04;5.93;;;4.03;;
51216;SDS011;37283;49.760;8.648;2023-04-24T07:23:31;6.47;;;3.47;;
51216;SDS011;37283;49.760;8.648;2023-04-24T07:25:57;5.70;;;3.25;;
51216;SDS011;37283;49.760;8.648;2023-04-24T07:28:23;6.32;;;3.40;;
51216;SDS011;37283;49.760;8.648;2023-04-24T07:30:50;7.28;;;4.03;;
51216;SDS011;37283;49.760;8.648;2023-04-24T07:33:20;5.30;;;3.40;;
51216;SDS011;37283;49.760;8.648;2023-04-24T07:35:46;4.15;;;3.30;;
51216;SDS011;37283;49.760;8.648;2023-04-24T07:38:13;5.60;;;3.47;;
51216;SDS011;37283;49.760;8.648;2023-04-24T07:40:39;3.42;;;2.70;;
51216;SDS011;37283;49.760;8.648;2023-04-24T07:43:06;4.88;;;3.13;;
51216;SDS011;37283;49.760;8.648;2023-04-24T07:45:32;6.38;;;2.95;;
51216;SDS011;37283;49.760;8.648;2023-04-24T07:48:03;5.60;;;2.63;;
51216;SDS011;37283;49.760;8.648;2023-04-24T07:50:29;4.57;;;2.88;;
51216;SDS011;37283;49.760;8.648;2023-04-24T07:52:56;3.67;;;2.70;;
51216;SDS011;37283;49.760;8.648;2023-04-24T07:55:23;4.93;;;2.60;;
51216;SDS011;37283;49.760;8.648;2023-04-24T07:57:53;2.85;;;2.42;;
51216;SDS011;37283;49.760;8.648;2023-04-24T08:00:19;3.88;;;2.58;;
51216;SDS011;37283;49.760;8.648;2023-04-24T08:02:46;4.72;;;2.80;;
51216;SDS011;37283;49.760;8.648;2023-04-24T08:05:13;4.97;;;2.35;;
51216;SDS011;37283;49.760;8.648;2023-04-24T08:07:40;5.65;;;2.60;;
51216;SDS011;37283;49.760;8.648;2023-04-24T08:10:09;5.25;;;2.78;;
51216;SDS011;37283;49.760;8.648;2023-04-24T08:12:37;2.67;;;1.95;;
51216;SDS011;37283;49.760;8.648;2023-04-24T08:15:04;4.22;;;1.40;;
51216;SDS011;37283;49.760;8.648;2023-04-24T08:17:31;2.92;;;1.73;;
51216;SDS011;37283;49.760;8.648;2023-04-24T08:19:57;2.13;;;1.40;;
51216;SDS011;37283;49.760;8.648;2023-04-24T08:22:27;2.10;;;1.52;;
51216;SDS011;37283;49.760;8.648;2023-04-24T08:24:54;1.70;;;1.42;;
51216;SDS011;37283;49.760;8.648;2023-04-24T08:27:22;2.83;;;2.00;;
51216;SDS011;37283;49.760;8.648;2023-04-24T08:29:49;4.53;;;2.30;;
51216;SDS011;37283;49.760;8.648;2023-04-24T08:32:16;2.35;;;1.90;;
51216;SDS011;37283;49.760;8.648;2023-04-24T08:34:43;2.25;;;1.90;;
51216;SDS011;37283;49.760;8.648;2023-04-24T08:37:09;3.65;;;2.05;;
51216;SDS011;37283;49.760;8.648;2023-04-24T08:39:36;3.42;;;1.90;;
51216;SDS011;37283;49.760;8.648;2023-04-24T08:42:03;3.70;;;2.20;;
51216;SDS011;37283;49.760;8.648;2023-04-24T08:44:34;3.53;;;2.47;;
51216;SDS011;37283;49.760;8.648;2023-04-24T08:47:01;3.75;;;2.17;;
51216;SDS011;37283;49.760;8.648;2023-04-24T08:49:28;2.20;;;1.90;;
51216;SDS011;37283;49.760;8.648;2023-04-24T08:51:55;3.20;;;2.15;;
51216;SDS011;37283;49.760;8.648;2023-04-24T08:54:22;5.72;;;2.78;;
51216;SDS011;37283;49.760;8.648;2023-04-24T08:56:49;2.97;;;2.10;;
51216;SDS011;37283;49.760;8.648;2023-04-24T08:59:16;3.13;;;2.22;;
51216;SDS011;37283;49.760;8.648;2023-04-24T09:01:43;5.30;;;2.25;;
51216;SDS011;37283;49.760;8.648;2023-04-24T09:04:11;3.33;;;2.10;;
51216;SDS011;37283;49.760;8.648;2023-04-24T09:06:41;2.10;;;1.90;;
51216;SDS011;37283;49.760;8.648;2023-04-24T09:09:08;4.40;;;2.58;;
51216;SDS011;37283;49.760;8.648;2023-04-24T09:11:36;3.13;;;2.17;;
51216;SDS011;37283;49.760;8.648;2023-04-24T09:14:02;3.90;;;2.13;;
51216;SDS011;37283;49.760;8.648;2023-04-24T09:16:29;3.17;;;2.42;;
51216;SDS011;37283;49.760;8.648;2023-04-24T09:18:59;4.43;;;2.22;;
51216;SDS011;37283;49.760;8.648;2023-04-24T09:21:30;3.45;;;2.35;;
51216;SDS011;37283;49.760;8.648;2023-04-24T09:23:58;5.80;;;2.67;;
51216;SDS011;37283;49.760;8.648;2023-04-24T09:26:28;3.03;;;2.22;;
51216;SDS011;37283;49.760;8.648;2023-04-24T09:28:58;7.25;;;2.40;;
51216;SDS011;37283;49.760;8.648;2023-04-24T09:31:26;3.35;;;2.30;;
51216;SDS011;37283;49.760;8.648;2023-04-24T09:33:54;2.70;;;2.10;;
51216;SDS011;37283;49.760;8.648;2023-04-24T09:36:28;3.67;;;2.67;;
51216;SDS011;37283;49.760;8.648;2023-04-24T09:38:57;4.07;;;2.45;;
51216;SDS011;37283;49.760;8.648;2023-04-24T09:41:24;4.80;;;2.60;;
51216;SDS011;37283;49.760;8.648;2023-04-24T09:43:53;2.83;;;2.53;;
51216;SDS011;37283;49.760;8.648;2023-04-24T09:46:20;5.63;;;2.60;;
51216;SDS011;37283;49.760;8.648;2023-04-24T09:48:48;4.18;;;2.67;;
51216;SDS011;37283;49.760;8.648;2023-04-24T09:51:14;3.10;;;2.40;;
51216;SDS011;37283;49.760;8.648;2023-04-24T09:53:45;3.28;;;2.60;;
51216;SDS011;37283;49.760;8.648;2023-04-24T09:56:16;3.17;;;2.63;;
51216;SDS011;37283;49.760;8.648;2023-04-24T09:58:43;5.80;;;3.10;;
51216;SDS011;37283;49.760;8.648;2023-04-24T10:01:09;3.30;;;2.53;;
51216;SDS011;37283;49.760;8.648;2023-04-24T10:03:36;4.05;;;2.75;;
51216;SDS011;37283;49.760;8.648;2023-04-24T10:06:03;2.63;;;2.22;;
51216;SDS011;37283;49.760;8.648;2023-04-24T10:08:35;3.72;;;2.55;;
51216;SDS011;37283;49.760;8.648;2023-04-24T10:11:02;3.65;;;2.38;;
51216;SDS011;37283;49.760;8.648;2023-04-24T10:13:29;6.85;;;2.60;;
51216;SDS011;37283;49.760;8.648;2023-04-24T10:15:55;3.78;;;2.10;;
51216;SDS011;37283;49.760;8.648;2023-04-24T10:18:22;2.72;;;2.00;;
51216;SDS011;37283;49.760;8.648;2023-04-24T10:20:49;2.45;;;1.80;;
51216;SDS011;37283;49.760;8.648;2023-04-24T10:23:16;1.92;;;1.60;;
51216;SDS011;37283;49.760;8.648;2023-04-24T10:25:45;2.63;;;1.80;;
51216;SDS011;37283;49.760;8.648;2023-04-24T10:28:12;3.90;;;1.77;;
51216;SDS011;37283;49.760;8.648;2023-04-24T10:30:38;3.13;;;1.60;;
51216;SDS011;37283;49.760;8.648;2023-04-24T10:33:06;2.53;;;2.00;;
51216;SDS011;37283;49.760;8.648;2023-04-24T10:35:35;1.95;;;1.65;;
51216;SDS011;37283;49.760;8.648;2023-04-24T10:38:08;2.97;;;1.65;;
51216;SDS011;37283;49.760;8.648;2023-04-24T10:40:35;2.67;;;1.92;;
51216;SDS011;37283;49.760;8.648;2023-04-24T10:43:03;2.63;;;1.80;;
51216;SDS011;37283;49.760;8.648;2023-04-24T10:45:35;3.65;;;1.83;;
51216;SDS011;37283;49.760;8.648;2023-04-24T10:48:03;6.90;;;2.17;;
51216;SDS011;37283;49.760;8.648;2023-04-24T10:53:17;3.38;;;2.08;;
51216;SDS011;37283;49.760;8.648;2023-04-24T10:58:39;3.90;;;2.05;;
51216;SDS011;37283;49.760;8.648;2023-04-24T11:01:07;2.65;;;1.80;;
51216;SDS011;37283;49.760;8.648;2023-04-24T11:03:34;4.55;;;2.40;;
51216;SDS011;37283;49.760;8.648;2023-04-24T11:06:02;3.33;;;2.03;;
51216;SDS011;37283;49.760;8.648;2023-04-24T11:08:30;2.58;;;1.92;;
51216;SDS011;37283;49.760;8.648;2023-04-24T11:10:59;3.38;;;1.90;;
51216;SDS011;37283;49.760;8.648;2023-04-24T11:16:32;2.67;;;1.85;;
51216;SDS011;37283;49.760;8.648;2023-04-24T11:24:23;3.25;;;2.40;;
51216;SDS011;37283;49.760;8.648;2023-04-24T11:27:17;4.28;;;2.80;;
51216;SDS011;37283;49.760;8.648;2023-04-24T11:29:46;3.92;;;2.00;;
51216;SDS011;37283;49.760;8.648;2023-04-24T11:32:15;2.90;;;1.90;;
51216;SDS011;37283;49.760;8.648;2023-04-24T11:34:45;2.67;;;1.98;;
51216;SDS011;37283;49.760;8.648;2023-04-24T11:37:12;4.32;;;2.28;;
51216;SDS011;37283;49.760;8.648;2023-04-24T11:39:40;6.95;;;2.95;;
51216;SDS011;37283;49.760;8.648;2023-04-24T11:42:07;4.60;;;2.20;;
51216;SDS011;37283;49.760;8.648;2023-04-24T11:44:34;3.38;;;2.13;;
51216;SDS011;37283;49.760;8.648;2023-04-24T11:47:04;3.13;;;2.15;;
51216;SDS011;37283;49.760;8.648;2023-04-24T11:49:31;5.78;;;2.20;;
51216;SDS011;37283;49.760;8.648;2023-04-24T11:52:01;3.63;;;2.22;;
51216;SDS011;37283;49.760;8.648;2023-04-24T11:54:28;5.60;;;2.83;;
51216;SDS011;37283;49.760;8.648;2023-04-24T11:56:55;3.95;;;2.83;;
51216;SDS011;37283;49.760;8.648;2023-04-24T11:59:22;5.40;;;2.88;;
51216;SDS011;37283;49.760;8.648;2023-04-24T12:01:49;6.28;;;3.33;;
51216;SDS011;37283;49.760;8.648;2023-04-24T12:04:16;4.57;;;3.33;;
51216;SDS011;37283;49.760;8.648;2023-04-24T12:07:00;6.40;;;3.58;;
51216;SDS011;37283;49.760;8.648;2023-04-24T12:09:27;6.30;;;3.58;;
51216;SDS011;37283;49.760;8.648;2023-04-24T12:11:54;4.63;;;3.47;;
51216;SDS011;37283;49.760;8.648;2023-04-24T12:14:24;6.85;;;3.90;;
51216;SDS011;37283;49.760;8.648;2023-04-24T12:16:50;3.95;;;2.90;;
51216;SDS011;37283;49.760;8.648;2023-04-24T12:19:18;6.65;;;4.28;;
51216;SDS011;37283;49.760;8.648;2023-04-24T12:21:59;12.57;;;6.07;;
51216;SDS011;37283;49.760;8.648;2023-04-24T12:24:31;15.07;;;9.15;;
51216;SDS011;37283;49.760;8.648;2023-04-24T12:26:58;4.47;;;3.17;;
51216;SDS011;37283;49.760;8.648;2023-04-24T12:29:24;4.25;;;3.85;;
51216;SDS011;37283;49.760;8.648;2023-04-24T12:31:51;6.15;;;4.72;;
51216;SDS011;37283;49.760;8.648;2023-04-24T12:34:18;5.20;;;4.60;;
51216;SDS011;37283;49.760;8.648;2023-04-24T12:36:46;7.20;;;5.27;;
51216;SDS011;37283;49.760;8.648;2023-04-24T12:39:17;5.65;;;4.10;;
51216;SDS011;37283;49.760;8.648;2023-04-24T12:42:25;4.75;;;3.42;;
51216;SDS011;37283;49.760;8.648;2023-04-24T12:44:37;4.72;;;3.25;;
51216;SDS011;37283;49.760;8.648;2023-04-24T12:47:04;5.60;;;3.20;;
51216;SDS011;37283;49.760;8.648;2023-04-24T12:49:30;4.25;;;3.17;;
51216;SDS011;37283;49.760;8.648;2023-04-24T12:51:57;10.40;;;3.38;;
51216;SDS011;37283;49.760;8.648;2023-04-24T12:54:23;5.22;;;3.60;;
51216;SDS011;37283;49.760;8.648;2023-04-24T12:56:50;7.00;;;3.60;;
51216;SDS011;37283;49.760;8.648;2023-04-24T12:59:17;5.05;;;4.35;;
51216;SDS011;37283;49.760;8.648;2023-04-24T13:01:43;4.78;;;3.03;;
51216;SDS011;37283;49.760;8.648;2023-04-24T13:04:10;3.95;;;2.92;;
51216;SDS011;37283;49.760;8.648;2023-04-24T13:06:36;4.45;;;3.10;;
51216;SDS011;37283;49.760;8.648;2023-04-24T13:09:03;4.30;;;3.33;;
51216;SDS011;37283;49.760;8.648;2023-04-24T13:11:29;7.03;;;3.42;;
51216;SDS011;37283;49.760;8.648;2023-04-24T13:13:56;4.57;;;2.92;;
51216;SDS011;37283;49.760;8.648;2023-04-24T13:16:22;3.75;;;2.42;;
51216;SDS011;37283;49.760;8.648;2023-04-24T13:18:49;5.05;;;2.90;;
51216;SDS011;37283;49.760;8.648;2023-04-24T13:21:16;4.15;;;2.50;;
51216;SDS011;37283;49.760;8.648;2023-04-24T13:23:42;3.60;;;2.63;;
51216;SDS011;37283;49.760;8.648;2023-04-24T13:26:09;5.25;;;2.65;;
51216;SDS011;37283;49.760;8.648;2023-04-24T13:28:36;3.97;;;3.00;;
51216;SDS011;37283;49.760;8.648;2023-04-24T13:31:04;4.68;;;2.95;;
51216;SDS011;37283;49.760;8.648;2023-04-24T13:33:30;3.78;;;2.70;;
51216;SDS011;37283;49.760;8.648;2023-04-24T13:35:57;5.38;;;2.78;;
51216;SDS011;37283;49.760;8.648;2023-04-24T13:38:23;5.80;;;2.63;;
51216;SDS011;37283;49.760;8.648;2023-04-24T13:40:50;4.15;;;2.80;;
51216;SDS011;37283;49.760;8.648;2023-04-24T13:43:16;5.07;;;2.97;;
51216;SDS011;37283;49.760;8.648;2023-04-24T13:45:43;6.50;;;2.95;;
51216;SDS011;37283;49.760;8.648;2023-04-24T13:48:09;4.15;;;2.60;;
51216;SDS011;37283;49.760;8.648;2023-04-24T13:50:36;5.13;;;2.70;;
51216;SDS011;37283;49.760;8.648;2023-04-24T13:53:03;5.53;;;2.90;;
51216;SDS011;37283;49.760;8.648;2023-04-24T13:55:29;4.45;;;2.92;;
51216;SDS011;37283;49.760;8.648;2023-04-24T13:57:56;4.32;;;2.50;;
51216;SDS011;37283;49.760;8.648;2023-04-24T14:00:22;4.65;;;2.72;;
51216;SDS011;37283;49.760;8.648;2023-04-24T14:02:49;6.53;;;2.47;;
51216;SDS011;37283;49.760;8.648;2023-04-24T14:05:16;5.10;;;2.88;;
51216;SDS011;37283;49.760;8.648;2023-04-24T14:07:43;5.53;;;2.60;;
51216;SDS011;37283;49.760;8.648;2023-04-24T14:10:09;5.28;;;2.90;;
51216;SDS011;37283;49.760;8.648;2023-04-24T14:12:36;3.75;;;2.42;;
51216;SDS011;37283;49.760;8.648;2023-04-24T14:15:03;3.30;;;2.20;;
51216;SDS011;37283;49.760;8.648;2023-04-24T14:17:31;4.88;;;2.42;;
51216;SDS011;37283;49.760;8.648;2023-04-24T14:19:57;5.05;;;2.55;;
51216;SDS011;37283;49.760;8.648;2023-04-24T14:22:26;3.77;;;2.30;;
51216;SDS011;37283;49.760;8.648;2023-04-24T14:24:52;4.05;;;2.00;;
51216;SDS011;37283;49.760;8.648;2023-04-24T14:27:18;3.03;;;2.15;;
51216;SDS011;37283;49.760;8.648;2023-04-24T14:29:45;4.65;;;2.33;;
51216;SDS011;37283;49.760;8.648;2023-04-24T14:32:11;5.43;;;2.35;;
51216;SDS011;37283;49.760;8.648;2023-04-24T14:34:40;5.63;;;2.88;;
51216;SDS011;37283;49.760;8.648;2023-04-24T14:37:07;5.00;;;2.88;;
51216;SDS011;37283;49.760;8.648;2023-04-24T14:39:34;4.38;;;2.50;;
51216;SDS011;37283;49.760;8.648;2023-04-24T14:42:00;4.03;;;2.40;;
51216;SDS011;37283;49.760;8.648;2023-04-24T14:44:27;3.53;;;2.42;;
51216;SDS011;37283;49.760;8.648;2023-04-24T14:46:53;5.70;;;2.75;;
51216;SDS011;37283;49.760;8.648;2023-04-24T14:49:20;3.95;;;2.60;;
51216;SDS011;37283;49.760;8.648;2023-04-24T14:51:47;5.32;;;2.60;;
51216;SDS011;37283;49.760;8.648;2023-04-24T14:54:13;2.90;;;2.17;;
51216;SDS011;37283;49.760;8.648;2023-04-24T14:56:39;5.10;;;2.30;;
51216;SDS011;37283;49.760;8.648;2023-04-24T14:59:07;4.90;;;2.42;;
51216;SDS011;37283;49.760;8.648;2023-04-24T15:01:33;3.70;;;2.67;;
51216;SDS011;37283;49.760;8.648;2023-04-24T15:04:00;3.33;;;2.38;;
51216;SDS011;37283;49.760;8.648;2023-04-24T15:06:26;3.97;;;2.30;;
51216;SDS011;37283;49.760;8.648;2023-04-24T15:08:53;3.58;;;2.45;;
51216;SDS011;37283;49.760;8.648;2023-04-24T15:11:20;5.57;;;3.08;;
51216;SDS011;37283;49.760;8.648;2023-04-24T15:13:46;5.72;;;3.22;;
51216;SDS011;37283;49.760;8.648;2023-04-24T15:16:13;4.47;;;2.83;;
51216;SDS011;37283;49.760;8.648;2023-04-24T15:18:39;4.72;;;2.50;;
51216;SDS011;37283;49.760;8.648;2023-04-24T15:21:06;4.88;;;2.80;;
51216;SDS011;37283;49.760;8.648;2023-04-24T15:23:32;3.05;;;2.25;;
51216;SDS011;37283;49.760;8.648;2023-04-24T15:25:59;6.03;;;2.78;;
51216;SDS011;37283;49.760;8.648;2023-04-24T15:28:27;19.92;;;13.05;;
51216;SDS011;37283;49.760;8.648;2023-04-24T15:30:53;4.25;;;3.50;;
51216;SDS011;37283;49.760;8.648;2023-04-24T15:33:20;4.03;;;2.30;;
51216;SDS011;37283;49.760;8.648;2023-04-24T15:35:47;4.90;;;3.47;;
51216;SDS011;37283;49.760;8.648;2023-04-24T15:38:15;4.65;;;3.10;;
51216;SDS011;37283;49.760;8.648;2023-04-24T15:40:41;5.07;;;3.05;;
51216;SDS011;37283;49.760;8.648;2023-04-24T15:43:08;4.65;;;2.58;;
51216;SDS011;37283;49.760;8.648;2023-04-24T15:45:34;3.45;;;2.60;;
51216;SDS011;37283;49.760;8.648;2023-04-24T15:48:01;4.10;;;3.10;;
51216;SDS011;37283;49.760;8.648;2023-04-24T15:50:27;4.05;;;2.50;;
51216;SDS011;37283;49.760;8.648;2023-04-24T15:52:54;5.00;;;3.33;;
51216;SDS011;37283;49.760;8.648;2023-04-24T15:55:20;7.85;;;2.83;;
51216;SDS011;37283;49.760;8.648;2023-04-24T15:57:47;3.70;;;2.33;;
51216;SDS011;37283;49.760;8.648;2023-04-24T16:00:13;7.43;;;2.80;;
51216;SDS011;37283;49.760;8.648;2023-04-24T16:02:41;5.28;;;2.72;;
51216;SDS011;37283;49.760;8.648;2023-04-24T16:05:08;4.68;;;2.78;;
51216;SDS011;37283;49.760;8.648;2023-04-24T16:07:36;4.28;;;2.80;;
51216;SDS011;37283;49.760;8.648;2023-04-24T16:10:03;3.90;;;2.40;;
51216;SDS011;37283;49.760;8.648;2023-04-24T16:12:30;4.13;;;2.72;;
51216;SDS011;37283;49.760;8.648;2023-04-24T16:14:56;3.17;;;2.33;;
51216;SDS011;37283;49.760;8.648;2023-04-24T16:17:23;3.80;;;2.88;;
51216;SDS011;37283;49.760;8.648;2023-04-24T16:19:49;4.00;;;2.90;;
51216;SDS011;37283;49.760;8.648;2023-04-24T16:22:16;3.38;;;2.70;;
51216;SDS011;37283;49.760;8.648;2023-04-24T16:24:42;4.93;;;3.20;;
51216;SDS011;37283;49.760;8.648;2023-04-24T16:27:09;4.40;;;2.70;;
51216;SDS011;37283;49.760;8.648;2023-04-24T16:29:36;3.95;;;3.00;;
51216;SDS011;37283;49.760;8.648;2023-04-24T16:32:02;7.00;;;3.20;;
51216;SDS011;37283;49.760;8.648;2023-04-24T16:34:29;5.10;;;3.10;;
51216;SDS011;37283;49.760;8.648;2023-04-24T16:36:55;4.68;;;3.22;;
51216;SDS011;37283;49.760;8.648;2023-04-24T16:39:22;4.70;;;2.88;;
51216;SDS011;37283;49.760;8.648;2023-04-24T16:41:48;4.05;;;3.35;;
51216;SDS011;37283;49.760;8.648;2023-04-24T16:44:15;4.25;;;3.17;;
51216;SDS011;37283;49.760;8.648;2023-04-24T16:46:41;4.63;;;3.08;;
51216;SDS011;37283;49.760;8.648;2023-04-24T16:49:08;4.43;;;2.70;;
51216;SDS011;37283;49.760;8.648;2023-04-24T16:51:34;6.07;;;3.08;;
51216;SDS011;37283;49.760;8.648;2023-04-24T16:54:01;3.88;;;2.50;;
51216;SDS011;37283;49.760;8.648;2023-04-24T16:56:27;4.85;;;2.47;;
51216;SDS011;37283;49.760;8.648;2023-04-24T16:58:54;4.05;;;3.05;;
51216;SDS011;37283;49.760;8.648;2023-04-24T17:01:21;3.47;;;2.58;;
51216;SDS011;37283;49.760;8.648;2023-04-24T17:03:48;6.68;;;3.00;;
51216;SDS011;37283;49.760;8.648;2023-04-24T17:06:14;4.18;;;3.00;;
51216;SDS011;37283;49.760;8.648;2023-04-24T17:08:41;4.07;;;2.90;;
51216;SDS011;37283;49.760;8.648;2023-04-24T17:11:07;4.75;;;2.80;;
51216;SDS011;37283;49.760;8.648;2023-04-24T17:13:34;4.32;;;2.75;;
51216;SDS011;37283;49.760;8.648;2023-04-24T17:16:01;4.80;;;2.90;;
51216;SDS011;37283;49.760;8.648;2023-04-24T17:18:27;4.20;;;2.92;;
51216;SDS011;37283;49.760;8.648;2023-04-24T17:20:53;5.03;;;3.15;;
51216;SDS011;37283;49.760;8.648;2023-04-24T17:23:20;4.43;;;3.13;;
51216;SDS011;37283;49.760;8.648;2023-04-24T17:25:47;4.75;;;3.08;;
51216;SDS011;37283;49.760;8.648;2023-04-24T17:28:14;4.47;;;3.40;;
51216;SDS011;37283;49.760;8.648;2023-04-24T17:30:55;5.03;;;3.20;;
51216;SDS011;37283;49.760;8.648;2023-04-24T17:33:24;4.13;;;3.00;;
51216;SDS011;37283;49.760;8.648;2023-04-24T17:35:51;6.63;;;2.97;;
51216;SDS011;37283;49.760;8.648;2023-04-24T17:38:17;4.82;;;3.17;;
51216;SDS011;37283;49.760;8.648;2023-04-24T17:40:44;4.30;;;2.65;;
51216;SDS011;37283;49.760;8.648;2023-04-24T17:43:21;6.07;;;3.28;;
51216;SDS011;37283;49.760;8.648;2023-04-24T17:45:49;5.50;;;3.03;;
51216;SDS011;37283;49.760;8.648;2023-04-24T17:48:17;5.75;;;3.10;;
51216;SDS011;37283;49.760;8.648;2023-04-24T17:50:44;4.75;;;3.30;;
51216;SDS011;37283;49.760;8.648;2023-04-24T17:53:11;4.45;;;3.20;;